createdAt,value
2023-02-07T00:01:21.616Z,-1.50
2023-02-07T00:03:48.472Z,-1.51
2023-02-07T00:06:24.177Z,-1.58
2023-02-07T00:08:51.816Z,-1.71
2023-02-07T00:11:20.263Z,-1.76
2023-02-07T00:13:49.002Z,-1.75
2023-02-07T00:16:15.954Z,-1.72
2023-02-07T00:18:42.513Z,-1.69
2023-02-07T00:21:15.791Z,-1.68
2023-02-07T00:23:42.926Z,-1.68
2023-02-07T00:26:10.873Z,-1.68
2023-02-07T00:28:37.938Z,-1.71
2023-02-07T00:31:07.538Z,-1.73
2023-02-07T00:33:35.420Z,-1.76
2023-02-07T00:36:04.220Z,-1.78
2023-02-07T00:38:30.830Z,-1.77
2023-02-07T00:40:57.653Z,-1.79
2023-02-07T00:43:29.736Z,-1.84
2023-02-07T00:45:59.421Z,-1.82
2023-02-07T00:48:27.782Z,-1.86
2023-02-07T00:50:54.297Z,-1.90
2023-02-07T00:53:21.208Z,-1.92
2023-02-07T00:55:47.739Z,-1.98
2023-02-07T00:58:14.353Z,-1.98
2023-02-07T01:00:40.869Z,-2.07
2023-02-07T01:03:07.413Z,-2.09
2023-02-07T01:05:34.884Z,-2.10
2023-02-07T01:08:01.914Z,-2.11
2023-02-07T01:10:28.607Z,-2.14
2023-02-07T01:12:55.108Z,-2.16
2023-02-07T01:15:22.398Z,-2.17
2023-02-07T01:17:48.936Z,-2.22
2023-02-07T01:20:16.201Z,-2.19
2023-02-07T01:22:42.910Z,-2.28
2023-02-07T01:25:09.921Z,-2.39
2023-02-07T01:27:36.821Z,-2.45
2023-02-07T01:30:04.748Z,-2.47
2023-02-07T01:32:34.612Z,-2.53
2023-02-07T01:35:02.060Z,-2.55
2023-02-07T01:37:28.553Z,-2.58
2023-02-07T01:39:55.935Z,-2.57
2023-02-07T01:42:25.618Z,-2.54
2023-02-07T01:44:51.965Z,-2.53
2023-02-07T01:47:21.784Z,-2.52
2023-02-07T01:49:50.954Z,-2.52
2023-02-07T01:52:32.035Z,-2.54
2023-02-07T01:55:04.312Z,-2.55
2023-02-07T01:57:30.873Z,-2.53
2023-02-07T01:59:59.598Z,-2.53
2023-02-07T02:02:30.621Z,-2.53
2023-02-07T02:04:58.440Z,-2.57
2023-02-07T02:07:26.718Z,-2.58
2023-02-07T02:09:53.786Z,-2.62
2023-02-07T02:12:51.553Z,-2.76
2023-02-07T02:15:34.608Z,-2.85
2023-02-07T02:18:25.935Z,-2.81
2023-02-07T02:21:27.106Z,-2.75
2023-02-07T02:24:30.908Z,-2.77
2023-02-07T02:27:34.061Z,-2.81
2023-02-07T02:30:37.797Z,-2.83
2023-02-07T02:33:39.755Z,-2.83
2023-02-07T02:36:18.225Z,-2.84
2023-02-07T02:38:57.774Z,-2.85
2023-02-07T02:41:31.750Z,-2.85
2023-02-07T02:44:08.248Z,-2.87
2023-02-07T02:46:38.634Z,-2.91
2023-02-07T02:49:07.642Z,-2.96
2023-02-07T02:51:34.050Z,-2.96
2023-02-07T02:54:00.937Z,-2.95
2023-02-07T02:57:01.302Z,-2.96
2023-02-07T02:59:47.389Z,-3.02
2023-02-07T03:02:32.661Z,-2.99
2023-02-07T03:05:31.709Z,-2.93
2023-02-07T03:08:10.632Z,-2.92
2023-02-07T03:10:57.219Z,-3.00
2023-02-07T03:13:35.873Z,-3.03
2023-02-07T03:16:13.539Z,-3.02
2023-02-07T03:18:45.877Z,-3.01
2023-02-07T03:21:21.940Z,-3.02
2023-02-07T03:23:52.241Z,-3.02
2023-02-07T03:26:21.785Z,-3.00
2023-02-07T03:28:53.986Z,-3.00
2023-02-07T03:31:23.815Z,-3.03
2023-02-07T03:33:55.951Z,-3.05
2023-02-07T03:36:37.458Z,-3.07
2023-02-07T03:39:04.466Z,-3.06
2023-02-07T03:41:44.152Z,-3.07
2023-02-07T03:44:13.577Z,-3.13
2023-02-07T03:46:41.377Z,-3.23
2023-02-07T03:49:07.979Z,-3.20
2023-02-07T03:51:36.129Z,-3.22
2023-02-07T03:54:02.661Z,-3.36
2023-02-07T03:56:29.052Z,-3.34
2023-02-07T03:58:55.454Z,-3.27
2023-02-07T04:01:21.882Z,-3.30
2023-02-07T04:03:48.285Z,-3.37
2023-02-07T04:06:14.826Z,-3.32
2023-02-07T04:08:41.206Z,-3.28
2023-02-07T04:11:07.590Z,-3.33
2023-02-07T04:13:34.096Z,-3.37
2023-02-07T04:16:00.748Z,-3.35
2023-02-07T04:18:27.207Z,-3.30
2023-02-07T04:21:01.542Z,-3.37
2023-02-07T04:23:28.018Z,-3.35
2023-02-07T04:25:54.509Z,-3.37
2023-02-07T04:28:20.991Z,-3.39
2023-02-07T04:30:47.583Z,-3.40
2023-02-07T04:33:14.133Z,-3.40
2023-02-07T04:35:40.565Z,-3.43
2023-02-07T04:38:07.073Z,-3.47
2023-02-07T04:40:33.529Z,-3.53
2023-02-07T04:42:59.951Z,-3.56
2023-02-07T04:45:26.433Z,-3.54
2023-02-07T04:47:52.873Z,-3.55
2023-02-07T04:50:19.267Z,-3.60
2023-02-07T04:52:45.705Z,-3.69
2023-02-07T04:55:12.102Z,-3.74
2023-02-07T04:57:38.485Z,-3.81
2023-02-07T05:00:05.249Z,-3.88
2023-02-07T05:02:31.704Z,-3.95
2023-02-07T05:04:58.164Z,-3.93
2023-02-07T05:07:24.608Z,-3.88
2023-02-07T05:09:51.134Z,-3.92
2023-02-07T05:12:17.515Z,-3.97
2023-02-07T05:14:43.894Z,-4.04
2023-02-07T05:17:11.527Z,-4.14
2023-02-07T05:19:37.986Z,-4.19
2023-02-07T05:22:04.432Z,-4.14
2023-02-07T05:24:30.891Z,-4.15
2023-02-07T05:26:57.312Z,-4.18
2023-02-07T05:29:23.810Z,-4.20
2023-02-07T05:32:08.737Z,-4.20
2023-02-07T05:34:35.508Z,-4.23
2023-02-07T05:37:01.945Z,-4.17
2023-02-07T05:39:28.402Z,-4.14
2023-02-07T05:41:54.781Z,-4.13
2023-02-07T05:44:21.212Z,-4.14
2023-02-07T05:46:47.630Z,-4.13
2023-02-07T05:49:15.605Z,-4.14
2023-02-07T05:51:41.981Z,-4.10
2023-02-07T05:54:08.367Z,-4.09
2023-02-07T05:56:34.848Z,-4.11
2023-02-07T05:59:01.413Z,-4.11
2023-02-07T06:01:27.870Z,-4.10
2023-02-07T06:03:54.295Z,-4.09
2023-02-07T06:06:20.697Z,-4.11
2023-02-07T06:08:47.126Z,-4.08
2023-02-07T06:11:13.604Z,-4.08
2023-02-07T06:13:40.046Z,-4.10
2023-02-07T06:16:06.793Z,-4.11
2023-02-07T06:18:33.328Z,-4.07
2023-02-07T06:20:59.741Z,-4.02
2023-02-07T06:23:26.125Z,-3.95
2023-02-07T06:25:52.623Z,-3.91
2023-02-07T06:28:19.154Z,-3.83
2023-02-07T06:30:45.812Z,-3.77
2023-02-07T06:33:12.286Z,-3.75
2023-02-07T06:35:39.153Z,-3.74
2023-02-07T06:38:05.823Z,-3.70
2023-02-07T06:40:32.215Z,-3.66
2023-02-07T06:42:58.661Z,-3.67
2023-02-07T06:45:25.086Z,-3.67
2023-02-07T06:47:51.469Z,-3.64
2023-02-07T06:50:18.053Z,-3.62
2023-02-07T06:52:44.589Z,-3.61
2023-02-07T06:55:11.009Z,-3.57
2023-02-07T06:57:37.388Z,-3.55
2023-02-07T07:00:05.306Z,-3.50
2023-02-07T07:02:31.877Z,-3.49
2023-02-07T07:04:58.345Z,-3.53
2023-02-07T07:07:24.836Z,-3.57
2023-02-07T07:09:51.320Z,-3.58
2023-02-07T07:12:17.890Z,-3.57
2023-02-07T07:14:44.338Z,-3.57
2023-02-07T07:17:10.810Z,-3.57
2023-02-07T07:19:37.232Z,-3.55
2023-02-07T07:22:03.801Z,-3.52
2023-02-07T07:24:30.297Z,-3.49
2023-02-07T07:26:56.782Z,-3.46
2023-02-07T07:29:23.199Z,-3.43
2023-02-07T07:31:49.751Z,-3.35
2023-02-07T07:34:16.228Z,-3.26
2023-02-07T07:36:42.843Z,-3.19
2023-02-07T07:39:09.298Z,-3.16
2023-02-07T07:41:35.777Z,-3.13
2023-02-07T07:44:02.298Z,-3.06
2023-02-07T07:46:29.285Z,-3.00
2023-02-07T07:48:55.747Z,-2.90
2023-02-07T07:51:22.137Z,-2.84
2023-02-07T07:53:48.799Z,-2.72
2023-02-07T07:56:15.321Z,-2.57
2023-02-07T07:58:41.825Z,-2.47
2023-02-07T08:01:08.347Z,-2.43
2023-02-07T08:03:34.810Z,-2.32
2023-02-07T08:06:01.332Z,-2.23
2023-02-07T08:08:27.795Z,-2.16
2023-02-07T08:10:54.220Z,-2.04
2023-02-07T08:13:21.452Z,-1.87
2023-02-07T08:15:47.981Z,-1.67
2023-02-07T08:18:14.474Z,-1.74
2023-02-07T08:20:41.121Z,-1.82
2023-02-07T08:23:07.727Z,-1.73
2023-02-07T08:25:34.270Z,-1.52
2023-02-07T08:28:03.314Z,-0.74
2023-02-07T08:30:30.784Z,0.20
2023-02-07T08:32:57.333Z,1.13
2023-02-07T08:35:23.727Z,1.97
2023-02-07T08:37:50.955Z,2.68
2023-02-07T08:40:17.646Z,3.22
2023-02-07T08:42:44.536Z,3.29
2023-02-07T08:45:11.480Z,3.82
2023-02-07T08:47:37.934Z,4.37
2023-02-07T08:50:06.298Z,5.15
2023-02-07T08:52:32.752Z,5.66
2023-02-07T08:54:59.150Z,4.74
2023-02-07T08:57:25.747Z,5.15
2023-02-07T08:59:53.393Z,5.96
2023-02-07T09:02:19.872Z,6.02
2023-02-07T09:04:47.406Z,6.52
2023-02-07T09:07:14.707Z,7.48
2023-02-07T09:09:41.234Z,8.15
2023-02-07T09:12:07.982Z,8.75
2023-02-07T09:14:34.463Z,9.49
2023-02-07T09:17:00.944Z,9.67
2023-02-07T09:19:27.572Z,9.83
2023-02-07T09:21:54.144Z,10.05
2023-02-07T09:24:21.001Z,10.22
2023-02-07T09:26:47.386Z,10.31
2023-02-07T09:29:14.918Z,10.10
2023-02-07T09:31:42.344Z,9.95
2023-02-07T09:34:09.230Z,8.91
2023-02-07T09:36:36.062Z,7.74
2023-02-07T09:39:03.388Z,7.22
2023-02-07T09:42:03.484Z,7.59
2023-02-07T09:44:49.277Z,7.84
2023-02-07T09:47:20.079Z,8.14
2023-02-07T09:50:04.387Z,8.09
2023-02-07T09:52:35.907Z,7.27
2023-02-07T09:55:05.312Z,6.99
2023-02-07T09:57:37.850Z,6.88
2023-02-07T10:00:20.541Z,6.66
2023-02-07T10:03:22.376Z,6.57
2023-02-07T10:06:03.656Z,5.71
2023-02-07T10:08:40.860Z,5.55
2023-02-07T10:11:50.391Z,5.07
2023-02-07T10:14:36.048Z,5.30
2023-02-07T10:17:25.826Z,5.32
2023-02-07T10:20:06.229Z,5.53
2023-02-07T10:22:50.814Z,5.25
2023-02-07T10:25:43.346Z,4.95
2023-02-07T10:28:15.896Z,5.05
2023-02-07T10:31:17.008Z,4.71
2023-02-07T10:33:49.342Z,4.88
2023-02-07T10:36:17.378Z,5.07
2023-02-07T10:38:52.136Z,5.07
2023-02-07T10:41:40.919Z,4.91
2023-02-07T10:44:15.444Z,5.05
2023-02-07T10:46:45.152Z,5.19
2023-02-07T10:49:24.812Z,5.27
2023-02-07T10:51:54.853Z,5.05
2023-02-07T10:54:24.318Z,4.68
2023-02-07T10:56:56.011Z,4.64
2023-02-07T10:59:32.318Z,4.67
2023-02-07T11:01:59.553Z,4.40
2023-02-07T11:04:37.497Z,4.20
2023-02-07T11:07:07.455Z,4.07
2023-02-07T11:09:37.825Z,3.95
2023-02-07T11:12:25.423Z,3.78
2023-02-07T11:15:05.997Z,3.89
2023-02-07T11:17:34.953Z,3.72
2023-02-07T11:20:06.117Z,3.58
2023-02-07T11:22:32.696Z,3.48
2023-02-07T11:25:05.767Z,3.50
2023-02-07T11:27:40.993Z,3.71
2023-02-07T11:30:15.182Z,3.71
2023-02-07T11:32:41.991Z,3.64
2023-02-07T11:35:10.258Z,3.78
2023-02-07T11:37:38.680Z,3.78
2023-02-07T11:40:23.153Z,3.59
2023-02-07T11:42:57.134Z,3.62
2023-02-07T11:45:24.548Z,3.73
2023-02-07T11:47:54.909Z,3.63
2023-02-07T11:50:37.202Z,3.76
2023-02-07T11:53:03.822Z,3.95
2023-02-07T11:55:41.128Z,4.03
2023-02-07T11:58:11.488Z,3.95
2023-02-07T12:00:38.891Z,3.85
2023-02-07T12:03:22.310Z,3.67
2023-02-07T12:05:53.409Z,3.80
2023-02-07T12:08:24.038Z,3.65
2023-02-07T12:10:55.967Z,3.73
2023-02-07T12:14:04.077Z,3.78
2023-02-07T12:16:38.428Z,4.01
2023-02-07T12:19:13.169Z,4.08
2023-02-07T12:22:10.807Z,3.97
2023-02-07T12:24:43.647Z,3.84
2023-02-07T12:27:16.704Z,4.21
2023-02-07T12:29:53.278Z,4.26
2023-02-07T12:32:54.678Z,4.16
2023-02-07T12:36:03.457Z,4.27
2023-02-07T12:38:38.172Z,4.16
2023-02-07T12:41:15.856Z,4.28
2023-02-07T12:43:58.561Z,4.26
2023-02-07T12:47:00.726Z,4.23
2023-02-07T12:49:45.915Z,4.10
2023-02-07T12:52:41.003Z,4.02
2023-02-07T12:55:25.927Z,4.36
2023-02-07T12:58:14.367Z,4.34
2023-02-07T13:00:56.770Z,4.47
2023-02-07T13:03:47.822Z,4.62
2023-02-07T13:06:26.444Z,4.69
2023-02-07T13:09:07.490Z,4.82
2023-02-07T13:11:46.190Z,4.93
2023-02-07T13:14:48.328Z,4.84
2023-02-07T13:17:36.611Z,4.88
2023-02-07T13:20:02.999Z,5.15
2023-02-07T13:22:49.231Z,5.20
2023-02-07T13:25:23.419Z,5.01
2023-02-07T13:27:52.987Z,5.09
2023-02-07T13:30:21.043Z,5.03
2023-02-07T13:32:49.253Z,4.84
2023-02-07T13:35:21.644Z,4.93
2023-02-07T13:38:10.987Z,4.99
2023-02-07T13:40:46.302Z,4.65
2023-02-07T13:43:21.971Z,4.75
2023-02-07T13:45:56.303Z,5.11
2023-02-07T13:49:03.125Z,5.00
2023-02-07T13:51:51.518Z,4.72
2023-02-07T13:54:43.565Z,4.61
2023-02-07T13:57:53.538Z,4.68
2023-02-07T14:00:24.941Z,4.99
2023-02-07T14:02:56.391Z,5.01
2023-02-07T14:05:34.421Z,5.29
2023-02-07T14:08:03.874Z,5.44
2023-02-07T14:10:45.788Z,5.53
2023-02-07T14:13:30.675Z,5.25
2023-02-07T14:16:12.089Z,5.21
2023-02-07T14:18:49.965Z,5.33
2023-02-07T14:21:22.190Z,5.39
2023-02-07T14:23:57.587Z,5.33
2023-02-07T14:26:39.282Z,5.18
2023-02-07T14:29:50.858Z,5.00
2023-02-07T14:32:17.206Z,5.24
2023-02-07T14:35:25.578Z,5.34
2023-02-07T14:37:55.525Z,5.15
2023-02-07T14:40:31.743Z,5.29
2023-02-07T14:43:19.546Z,5.03
2023-02-07T14:45:52.035Z,4.93
2023-02-07T14:48:35.872Z,4.83
2023-02-07T14:51:02.502Z,4.94
2023-02-07T14:53:31.687Z,5.20
2023-02-07T14:56:04.449Z,5.38
2023-02-07T14:58:36.087Z,5.35
2023-02-07T15:01:02.674Z,5.30
2023-02-07T15:03:31.026Z,5.29
2023-02-07T15:06:03.104Z,5.35
2023-02-07T15:08:34.361Z,5.20
2023-02-07T15:11:06.845Z,5.07
2023-02-07T15:13:41.221Z,4.96
2023-02-07T15:16:10.723Z,4.99
2023-02-07T15:18:43.945Z,4.95
2023-02-07T15:21:34.291Z,4.86
2023-02-07T15:24:05.555Z,4.84
2023-02-07T15:26:34.755Z,4.71
2023-02-07T15:29:04.195Z,4.87
2023-02-07T15:31:31.316Z,4.97
2023-02-07T15:34:00.806Z,5.02
2023-02-07T15:36:29.871Z,5.08
2023-02-07T15:38:57.565Z,4.85
2023-02-07T15:41:24.095Z,4.67
2023-02-07T15:44:02.638Z,4.72
2023-02-07T15:46:49.024Z,4.74
2023-02-07T15:49:35.039Z,4.58
2023-02-07T15:52:26.035Z,4.51
2023-02-07T15:54:54.375Z,4.44
2023-02-07T15:57:20.754Z,4.42
2023-02-07T15:59:52.032Z,4.46
2023-02-07T16:02:34.562Z,4.47
2023-02-07T16:05:12.600Z,4.44
2023-02-07T16:07:42.469Z,4.35
2023-02-07T16:10:16.806Z,4.10
2023-02-07T16:12:49.933Z,3.77
2023-02-07T16:15:24.172Z,3.69
2023-02-07T16:17:50.882Z,3.56
2023-02-07T16:20:17.805Z,3.48
2023-02-07T16:22:45.684Z,3.47
2023-02-07T16:25:17.142Z,3.42
2023-02-07T16:27:45.480Z,3.38
2023-02-07T16:30:35.743Z,3.37
2023-02-07T16:33:12.912Z,3.33
2023-02-07T16:35:39.409Z,3.26
2023-02-07T16:38:05.925Z,3.16
2023-02-07T16:40:32.597Z,3.03
2023-02-07T16:43:02.090Z,2.90
2023-02-07T16:45:30.242Z,2.80
2023-02-07T16:47:58.940Z,2.73
2023-02-07T16:50:27.556Z,2.66
2023-02-07T16:52:56.903Z,2.59
2023-02-07T16:55:26.641Z,2.49
2023-02-07T16:57:53.415Z,2.39
2023-02-07T17:00:22.753Z,2.32
2023-02-07T17:02:51.500Z,2.19
2023-02-07T17:05:19.636Z,2.07
2023-02-07T17:07:46.289Z,1.92
2023-02-07T17:10:24.588Z,1.87
2023-02-07T17:12:51.333Z,1.78
2023-02-07T17:15:17.990Z,1.72
2023-02-07T17:17:44.430Z,1.63
2023-02-07T17:20:24.185Z,1.52
2023-02-07T17:22:52.319Z,1.39
2023-02-07T17:25:19.526Z,1.35
2023-02-07T17:27:46.700Z,1.29
2023-02-07T17:30:21.054Z,1.24
2023-02-07T17:32:47.727Z,1.18
2023-02-07T17:35:15.052Z,1.10
2023-02-07T17:37:42.379Z,0.98
2023-02-07T17:40:21.776Z,0.89
2023-02-07T17:42:48.402Z,0.83
2023-02-07T17:45:15.394Z,0.72
2023-02-07T17:47:42.050Z,0.69
2023-02-07T17:50:17.821Z,0.65
2023-02-07T17:52:44.366Z,0.62
2023-02-07T17:55:10.837Z,0.57
2023-02-07T17:57:37.318Z,0.56
2023-02-07T18:00:04.879Z,0.48
2023-02-07T18:02:39.164Z,0.38
2023-02-07T18:05:06.021Z,0.23
2023-02-07T18:07:32.507Z,-0.07
2023-02-07T18:09:58.955Z,-0.37
2023-02-07T18:12:25.361Z,-0.61
2023-02-07T18:14:52.409Z,-0.74
2023-02-07T18:17:19.273Z,-0.81
2023-02-07T18:19:45.666Z,-0.91
2023-02-07T18:22:12.101Z,-0.88
2023-02-07T18:24:38.915Z,-0.77
2023-02-07T18:27:05.734Z,-0.69
2023-02-07T18:29:32.130Z,-0.70
2023-02-07T18:31:58.714Z,-0.71
2023-02-07T18:34:25.130Z,-0.65
2023-02-07T18:36:51.610Z,-0.61
2023-02-07T18:39:18.118Z,-0.62
2023-02-07T18:41:44.569Z,-0.65
2023-02-07T18:44:11.094Z,-0.74
2023-02-07T18:46:37.783Z,-0.91
2023-02-07T18:49:04.248Z,-1.02
2023-02-07T18:51:30.705Z,-1.09
2023-02-07T18:53:57.158Z,-1.08
2023-02-07T18:56:26.166Z,-1.08
2023-02-07T18:58:53.068Z,-1.02
2023-02-07T19:01:20.407Z,-1.00
2023-02-07T19:03:51.250Z,-1.01
2023-02-07T19:06:17.761Z,-1.02
2023-02-07T19:08:44.242Z,-1.04
2023-02-07T19:11:10.723Z,-1.09
2023-02-07T19:13:37.214Z,-1.09
2023-02-07T19:16:11.001Z,-1.08
2023-02-07T19:18:37.903Z,-1.10
2023-02-07T19:21:15.460Z,-1.13
2023-02-07T19:23:42.198Z,-1.17
2023-02-07T19:26:09.919Z,-1.22
2023-02-07T19:28:37.807Z,-1.23
2023-02-07T19:31:09.936Z,-1.24
2023-02-07T19:33:36.750Z,-1.27
2023-02-07T19:36:08.642Z,-1.26
2023-02-07T19:38:35.330Z,-1.27
2023-02-07T19:41:02.933Z,-1.30
2023-02-07T19:43:29.785Z,-1.36
2023-02-07T19:45:56.378Z,-1.41
2023-02-07T19:48:23.171Z,-1.42
2023-02-07T19:51:10.912Z,-1.46
2023-02-07T19:53:37.462Z,-1.47
2023-02-07T19:56:08.834Z,-1.48
2023-02-07T19:58:35.737Z,-1.52
2023-02-07T20:01:02.142Z,-1.52
2023-02-07T20:03:29.018Z,-1.49
2023-02-07T20:05:59.781Z,-1.42
2023-02-07T20:08:26.276Z,-1.42
2023-02-07T20:10:52.931Z,-1.42
2023-02-07T20:13:19.366Z,-1.44
2023-02-07T20:15:47.022Z,-1.48
2023-02-07T20:18:13.932Z,-1.50
2023-02-07T20:20:42.509Z,-1.49
2023-02-07T20:23:09.442Z,-1.60
2023-02-07T20:25:37.992Z,-1.68
2023-02-07T20:28:06.385Z,-1.69
2023-02-07T20:30:33.935Z,-1.66
2023-02-07T20:33:00.617Z,-1.63
2023-02-07T20:35:27.381Z,-1.64
2023-02-07T20:37:54.027Z,-1.69
2023-02-07T20:40:20.607Z,-1.88
2023-02-07T20:42:46.999Z,-2.09
2023-02-07T20:45:13.425Z,-2.21
2023-02-07T20:47:39.864Z,-2.23
2023-02-07T20:50:06.806Z,-2.15
2023-02-07T20:52:33.335Z,-2.11
2023-02-07T20:54:59.768Z,-2.09
2023-02-07T20:57:26.236Z,-2.11
2023-02-07T20:59:52.603Z,-2.14
2023-02-07T21:02:19.035Z,-2.12
2023-02-07T21:04:45.493Z,-2.11
2023-02-07T21:07:11.994Z,-2.13
2023-02-07T21:09:38.590Z,-2.16
2023-02-07T21:12:05.633Z,-2.20
2023-02-07T21:14:33.010Z,-2.22
2023-02-07T21:17:06.014Z,-2.29
2023-02-07T21:19:33.256Z,-2.38
2023-02-07T21:21:59.798Z,-2.48
2023-02-07T21:24:26.561Z,-2.58
2023-02-07T21:26:54.640Z,-2.62
2023-02-07T21:29:22.518Z,-2.67
2023-02-07T21:31:49.882Z,-2.75
2023-02-07T21:34:20.777Z,-2.75
2023-02-07T21:36:48.698Z,-2.71
2023-02-07T21:39:15.704Z,-2.64
2023-02-07T21:41:43.983Z,-2.62
2023-02-07T21:44:11.959Z,-2.60
2023-02-07T21:46:40.929Z,-2.58
2023-02-07T21:49:14.112Z,-2.60
2023-02-07T21:51:41.742Z,-2.62
2023-02-07T21:54:08.251Z,-2.69
2023-02-07T21:56:37.718Z,-2.78
2023-02-07T21:59:22.652Z,-2.84
2023-02-07T22:01:49.206Z,-2.83
2023-02-07T22:04:16.105Z,-2.82
2023-02-07T22:06:44.233Z,-2.80
2023-02-07T22:09:13.137Z,-2.84
2023-02-07T22:11:40.023Z,-2.88
2023-02-07T22:14:07.053Z,-2.90
2023-02-07T22:16:35.017Z,-2.96
2023-02-07T22:19:03.373Z,-3.09
2023-02-07T22:21:32.827Z,-3.19
2023-02-07T22:23:59.762Z,-3.15
2023-02-07T22:26:27.827Z,-3.16
2023-02-07T22:28:54.918Z,-3.24
2023-02-07T22:31:24.620Z,-3.27
2023-02-07T22:33:52.786Z,-3.28
2023-02-07T22:36:24.904Z,-3.32
2023-02-07T22:38:51.362Z,-3.38
2023-02-07T22:41:18.889Z,-3.42
2023-02-07T22:43:45.468Z,-3.37
2023-02-07T22:46:17.878Z,-3.33
2023-02-07T22:48:45.040Z,-3.44
2023-02-07T22:51:19.127Z,-3.48
2023-02-07T22:53:45.937Z,-3.46
2023-02-07T22:56:12.415Z,-3.40
2023-02-07T22:58:40.481Z,-3.33
2023-02-07T23:01:07.457Z,-3.29
2023-02-07T23:03:34.495Z,-3.27
2023-02-07T23:06:04.951Z,-3.25
2023-02-07T23:08:31.595Z,-3.25
2023-02-07T23:10:58.083Z,-3.29
2023-02-07T23:13:24.538Z,-3.32
2023-02-07T23:15:51.026Z,-3.33
2023-02-07T23:18:17.433Z,-3.33
2023-02-07T23:20:44.798Z,-3.30
2023-02-07T23:23:12.316Z,-3.25
2023-02-07T23:25:43.863Z,-3.23
2023-02-07T23:28:10.947Z,-3.24
2023-02-07T23:30:38.201Z,-3.21
2023-02-07T23:33:06.629Z,-3.21
2023-02-07T23:35:33.421Z,-3.20
2023-02-07T23:38:03.649Z,-3.19
2023-02-07T23:40:30.150Z,-3.22
2023-02-07T23:42:56.581Z,-3.27
2023-02-07T23:45:23.210Z,-3.32
2023-02-07T23:47:49.598Z,-3.40
2023-02-07T23:50:18.252Z,-3.41
2023-02-07T23:52:44.799Z,-3.41
2023-02-07T23:55:11.216Z,-3.41
2023-02-07T23:57:37.658Z,-3.45
